CST,Max TemperatureF,Mean TemperatureF,Min TemperatureF,Max Dew PointF,MeanDew PointF,Min DewpointF,Max Humidity, Mean Humidity, Min Humidity, Max Sea Level PressureIn, Mean Sea Level PressureIn, Min Sea Level PressureIn, Max VisibilityMiles, Mean VisibilityMiles, Min VisibilityMiles, Max Wind SpeedMPH, Mean Wind SpeedMPH, Max Gust SpeedMPH,PrecipitationIn, CloudCover, Events, WindDirDegrees
2012-1-1,48,40,32,37,25,15,82,58,34,30.30,30.04,29.63,10,10,7,36,23,47,0.02,4,Rain,286
2012-1-2,32,26,19,16,11,7,63,55,46,30.51,30.37,30.26,10,10,5,30,17,40,T,6,Snow,311
2012-1-3,34,23,11,14,10,7,84,60,35,30.52,30.36,30.10,10,10,10,21,10,26,0.00,0,,217
2012-1-4,48,39,30,28,22,13,72,57,42,30.17,30.08,30.03,10,10,10,18,10,25,0.00,0,,254
2012-1-5,59,43,27,31,28,22,78,56,33,30.11,29.97,29.83,10,10,10,17,9,21,0.00,0,,218
2012-1-6,64,52,40,34,31,28,62,48,34,29.90,29.80,29.72,10,10,10,18,10,23,0.00,0,,250
2012-1-7,48,38,28,29,27,24,85,65,45,30.27,30.12,29.92,10,10,10,14,7,18,0.00,0,,319
2012-1-8,44,33,22,30,26,20,92,71,49,30.37,30.32,30.27,10,10,5,9,4,12,0.00,3,,69
2012-1-9,50,35,20,29,24,19,96,68,39,30.30,30.19,30.09,10,9,5,17,6,20,0.00,0,,250
2012-1-10,58,42,26,30,26,23,78,55,32,30.11,29.98,29.79,10,10,10,17,4,21,0.00,0,,204
2012-1-11,51,40,28,42,32,23,82,72,62,29.76,29.61,29.54,10,10,4,21,6,26,T,5,,358
2012-1-12,35,25,15,27,12,8,85,79,73,29.85,29.70,29.64,10,3,1,31,20,39,0.27,8,Snow,286
2012-1-13,19,13,6,12,9,5,83,75,67,30.16,30.00,29.82,10,9,2,22,13,29,T,7,Snow,269
2012-1-14,25,16,6,20,14,4,92,83,73,30.32,30.18,30.08,10,6,0,12,5,14,0.02,5,Fog-Snow,98
2012-1-15,39,30,20,28,24,17,92,78,64,30.37,30.23,30.02,10,9,6,30,16,40,0.00,2,,168
2012-1-16,63,49,34,53,41,28,80,72,64,30.01,29.80,29.66,10,10,10,24,16,31,0.01,2,Rain,181
2012-1-17,59,38,17,55,35,9,96,84,71,30.37,29.86,29.59,10,6,2,37,15,49,0.65,7,Rain-Thunderstorm,280
2012-1-18,30,21,11,18,13,7,84,69,53,30.39,30.20,29.94,10,10,10,20,9,26,0.00,1,,195
2012-1-19,30,21,11,21,11,1,74,64,53,30.22,30.07,29.89,10,10,10,23,10,29,0.00,4,,347
2012-1-20,25,18,10,17,10,0,91,71,50,30.23,30.07,29.92,10,10,5,18,11,22,T,6,,62
2012-1-21,33,26,18,23,17,14,84,69,53,30.27,30.16,30.04,10,10,5,20,11,24,T,6,,60
2012-1-22,50,38,25,49,36,23,100,96,92,30.04,29.73,29.42,5,2,0,25,15,32,0.05,8,Fog-Rain,156
2012-1-23,50,42,33,48,33,24,100,85,69,30.06,29.72,29.40,10,9,5,38,17,46,0.06,8,Rain,255
2012-1-24,39,33,27,25,23,21,85,72,59,30.36,30.26,30.08,10,10,10,17,6,23,0.00,4,,310
2012-1-25,35,30,25,32,28,23,96,86,75,30.35,30.19,30.02,10,7,2,18,6,21,0.08,6,Rain,101
2012-1-26,37,35,33,36,33,30,100,93,85,30.01,29.83,29.70,10,3,1,13,7,16,0.28,7,Rain,342
2012-1-27,41,36,30,32,29,26,96,76,55,30.05,29.96,29.79,10,10,8,14,5,18,T,5,Rain,302
2012-1-28,41,35,28,32,25,19,89,69,48,30.26,30.13,29.98,10,8,2,25,14,29,0.04,3,Snow,260
2012-1-29,40,34,27,22,20,17,75,60,44,30.29,30.21,30.12,10,10,10,25,11,36,0.00,1,,253
2012-1-30,60,46,31,38,32,22,72,57,42,30.20,30.02,29.93,10,10,10,24,16,31,0.00,2,,184
2012-1-31,64,55,45,49,42,33,83,66,48,29.99,29.93,29.86,10,10,10,25,14,33,T,4,Rain,206